Ana Sayfa
METAR-TAF:

METAR-TAF

Havaalanları :

Newton City/County Airport

Newton, Kansas, Amerika Birleşik Devletleri

Enlem: 38-03N, Boylam: 097-17W, yükseklik: 467 m

Güncel hava durumu gözlemi

Rapor saat 01:56 UTC de 16 dakika önce yapıldı.
Rüzgar kuzey/kuzeybatıdan 10 kt
Sıcaklık 3°C
Nem 93%
Basınç 1023 hPa
Görüş mesafesi: 16.1 km
1800 ft yükseklikte az bulutlu
2700 ft yükseklikte çok bulutlu

METAR: KEWK 280156Z AUTO 34010KT 10SM FEW018 OVC027 03/02 A3022 RMK AO2 SLP244 T00330017

Saat: 20:12 (02:12 UTC)


TAF: eksik

4.000'den fazla havaalanı için hava durumu gözlemleri ve tahminleri (METAR ve TAF raporları).

Kullanılabilir istasyonlar harita üzerinde sarı ve kırmızı noktalarla gösterilir.

İstasyonun adını görmek için fareyi noktanın üzerinde gezdirin.

Sonrasında hava gözlem ve tahminlerini görmek için tıklayın.

Haritayı değiştirmek için: yaklaştırmak için siyah artı işaretli yeşil düğmeye ve uzaklaştırmak için de eksi işaretli düğmeye hızla tıklayın; bitişik haritalar için yeşil okları kullanın.


METAR-TAF: